Time;durP1;ratioP1;P1;durP2;ratioP2;P2;SDS_P1;SDS_P2;PMS_P1;PMS_P2;Temp;Humidity;BMP_temperature;BMP_pressure;BME280_temperature;BME280_humidity;BME280_pressure;Samples;Min_cycle;Max_cycle;Signal;HPM_P1;HPM_P2
2023/09/14 00:01:12;;;;;;;3.65;2.80;;;15.80;64.50;;;;;;5053086;28;20125;-68
2023/09/14 00:03:38;;;;;;;2.75;2.55;;;15.80;64.60;;;;;;5055632;28;20032;-68
2023/09/14 00:06:05;;;;;;;3.45;3.10;;;15.80;64.60;;;;;;5059583;28;21159;-68
2023/09/14 00:08:31;;;;;;;3.80;2.97;;;15.80;64.70;;;;;;5049539;28;20029;-68
2023/09/14 00:10:58;;;;;;;7.07;3.03;;;15.80;64.70;;;;;;5055221;28;20531;-68
2023/09/14 00:13:30;;;;;;;;;;;15.80;64.80;;;;;;5061330;28;20119;-68
2023/09/14 00:15:56;;;;;;;3.17;2.83;;;15.70;64.60;;;;;;5060064;28;19995;-68
2023/09/14 00:18:22;;;;;;;3.40;2.78;;;15.70;64.40;;;;;;5055127;28;20027;-67
2023/09/14 00:20:52;;;;;;;2.47;2.13;;;15.70;64.60;;;;;;5051022;28;20045;-67
2023/09/14 00:23:20;;;;;;;3.88;3.28;;;15.70;64.70;;;;;;5052828;28;20032;-67
2023/09/14 00:25:46;;;;;;;3.33;3.03;;;15.70;64.70;;;;;;5053843;28;20052;-67
2023/09/14 00:28:12;;;;;;;4.05;2.80;;;15.60;64.60;;;;;;5059957;28;20024;-67
2023/09/14 00:30:38;;;;;;;3.53;2.65;;;15.60;64.70;;;;;;5053099;28;20421;-67
2023/09/14 00:33:04;;;;;;;3.92;2.95;;;15.60;64.80;;;;;;5060019;28;20040;-67
2023/09/14 00:35:30;;;;;;;3.03;2.72;;;15.60;64.90;;;;;;5061008;28;20377;-67
2023/09/14 00:37:57;;;;;;;3.40;2.58;;;15.60;64.90;;;;;;5053396;28;20051;-67
2023/09/14 00:40:23;;;;;;;2.78;2.15;;;15.50;64.80;;;;;;5058047;28;20037;-67
2023/09/14 00:42:53;;;;;;;3.58;2.45;;;15.50;64.90;;;;;;5049515;28;20020;-67
2023/09/14 00:45:21;;;;;;;4.18;2.40;;;15.50;65.00;;;;;;5056550;28;20076;-67
2023/09/14 00:47:48;;;;;;;3.13;2.40;;;15.50;64.90;;;;;;5060267;28;20046;-67
2023/09/14 00:50:16;;;;;;;3.00;2.67;;;15.50;65.00;;;;;;5047882;28;20490;-67
2023/09/14 00:52:55;;;;;;;4.40;2.45;;;15.50;65.00;;;;;;5057499;28;20028;-67
2023/09/14 00:55:23;;;;;;;3.63;2.72;;;15.50;65.10;;;;;;5060229;28;20032;-67
2023/09/14 00:57:49;;;;;;;3.75;2.70;;;15.40;65.00;;;;;;5055001;28;20033;-67
2023/09/14 01:00:16;;;;;;;6.15;2.83;;;15.40;65.00;;;;;;5059676;28;20259;-67
2023/09/14 01:02:44;;;;;;;2.97;2.45;;;15.40;65.10;;;;;;5056648;28;20033;-67
2023/09/14 01:05:12;;;;;;;3.90;2.75;;;15.40;65.10;;;;;;5058077;28;20039;-68
2023/09/14 01:07:40;;;;;;;3.90;2.25;;;15.40;65.20;;;;;;5060211;28;20143;-68
2023/09/14 01:10:09;;;;;;;3.03;2.70;;;15.30;65.10;;;;;;5056467;28;20063;-67
2023/09/14 01:12:35;;;;;;;4.82;2.50;;;15.30;65.10;;;;;;5054735;28;20040;-67
2023/09/14 01:15:20;;;;;;;5.05;2.60;;;15.30;65.20;;;;;;5055371;28;20112;-67
2023/09/14 01:18:13;;;;;;;7.30;3.55;;;15.30;65.30;;;;;;5047806;28;20033;-67
2023/09/14 01:21:04;;;;;;;3.22;2.45;;;15.30;65.40;;;;;;5053362;28;20032;-67
2023/09/14 01:23:38;;;;;;;2.95;2.65;;;15.20;65.20;;;;;;5055335;28;20448;-67
2023/09/14 01:26:06;;;;;;;2.90;2.63;;;15.20;65.30;;;;;;5053009;28;20456;-68
2023/09/14 01:28:33;;;;;;;2.78;2.50;;;15.20;65.30;;;;;;5055903;28;20028;-67
2023/09/14 01:30:59;;;;;;;2.55;2.35;;;15.20;65.30;;;;;;5049603;28;20564;-68
2023/09/14 01:33:27;;;;;;;3.40;2.40;;;15.20;65.40;;;;;;5059735;28;20107;-67
2023/09/14 01:36:00;;;;;;;3.08;2.47;;;15.20;65.40;;;;;;5057262;28;20042;-67
2023/09/14 01:38:29;;;;;;;2.55;2.35;;;15.20;65.50;;;;;;5053662;28;20037;-67
2023/09/14 01:40:56;;;;;;;2.72;2.30;;;15.20;65.50;;;;;;5059816;28;20041;-67
2023/09/14 01:43:23;;;;;;;3.95;2.60;;;15.10;65.40;;;;;;5057933;28;20495;-68
2023/09/14 01:45:49;;;;;;;2.33;2.13;;;15.10;65.50;;;;;;5061561;28;20032;-68
2023/09/14 01:48:17;;;;;;;2.30;2.03;;;15.10;65.50;;;;;;5050530;28;20552;-68
2023/09/14 01:50:43;;;;;;;2.20;2.00;;;15.10;65.60;;;;;;5059155;28;20033;-67
2023/09/14 01:53:10;;;;;;;2.28;2.08;;;15.10;65.60;;;;;;5055143;28;20024;-68
2023/09/14 01:55:37;;;;;;;3.00;2.53;;;15.10;65.60;;;;;;5057857;28;20052;-69
2023/09/14 01:58:03;;;;;;;2.50;2.10;;;15.00;65.50;;;;;;5061491;28;20029;-68
2023/09/14 02:00:29;;;;;;;2.90;2.40;;;15.10;65.70;;;;;;5053570;28;20037;-67
2023/09/14 02:02:56;;;;;;;2.78;2.22;;;15.00;65.60;;;;;;5051939;28;20063;-67
2023/09/14 02:05:22;;;;;;;2.72;2.22;;;15.00;65.60;;;;;;5052846;28;20025;-67
2023/09/14 02:07:48;;;;;;;3.88;2.40;;;15.00;65.70;;;;;;5057416;28;20031;-67
2023/09/14 02:10:15;;;;;;;2.63;2.28;;;15.00;65.70;;;;;;5049589;28;20029;-67
2023/09/14 02:12:41;;;;;;;3.00;2.70;;;15.00;65.80;;;;;;5052478;28;20101;-67
2023/09/14 02:15:08;;;;;;;3.25;2.22;;;15.00;65.80;;;;;;5050150;28;20017;-67
2023/09/14 02:17:37;;;;;;;2.90;2.60;;;15.00;65.80;;;;;;5051622;28;20032;-67
2023/09/14 02:20:05;;;;;;;2.83;2.58;;;15.00;65.80;;;;;;5050742;28;20032;-67
2023/09/14 02:22:31;;;;;;;2.63;2.13;;;15.00;65.90;;;;;;5061264;28;20025;-67
2023/09/14 02:24:57;;;;;;;3.63;2.55;;;15.00;65.90;;;;;;5055374;28;20025;-67
2023/09/14 02:27:23;;;;;;;2.40;2.20;;;15.00;65.90;;;;;;5057786;28;20036;-67
2023/09/14 02:29:53;;;;;;;2.53;2.30;;;15.00;66.50;;;;;;5058316;28;20123;-67
2023/09/14 02:32:19;;;;;;;2.55;2.10;;;14.90;65.80;;;;;;5056345;28;20108;-67
2023/09/14 02:34:46;;;;;;;3.00;2.63;;;14.90;65.90;;;;;;5058234;28;20076;-67
2023/09/14 02:37:13;;;;;;;4.03;2.33;;;14.90;65.90;;;;;;5054628;28;20049;-67
2023/09/14 02:39:39;;;;;;;2.80;2.30;;;14.90;65.90;;;;;;5058454;28;20036;-68
2023/09/14 02:42:05;;;;;;;2.70;2.50;;;14.90;66.50;;;;;;5057591;28;20592;-68
2023/09/14 02:44:31;;;;;;;2.40;2.20;;;14.90;66.00;;;;;;5055327;28;20236;-68
2023/09/14 02:46:57;;;;;;;3.38;2.53;;;14.90;66.00;;;;;;5059784;28;20036;-68
2023/09/14 02:49:23;;;;;;;5.00;2.17;;;14.90;66.10;;;;;;5053164;28;20488;-69
2023/09/14 02:51:51;;;;;;;2.28;2.00;;;14.90;66.10;;;;;;5059172;28;20028;-69
2023/09/14 02:54:18;;;;;;;2.45;2.10;;;14.90;66.10;;;;;;5061085;28;20480;-67
2023/09/14 02:56:45;;;;;;;2.80;2.50;;;14.90;66.20;;;;;;5059860;28;20271;-68
2023/09/14 02:59:11;;;;;;;4.85;3.30;;;14.80;66.00;;;;;;5051532;28;20573;-68
2023/09/14 03:01:37;;;;;;;3.33;3.03;;;14.90;66.30;;;;;;5040506;28;20476;-68
2023/09/14 03:04:05;;;;;;;3.03;2.58;;;14.80;66.20;;;;;;5059455;28;20036;-68
2023/09/14 03:06:34;;;;;;;2.55;2.05;;;14.80;66.20;;;;;;5054855;28;20404;-68
2023/09/14 03:09:00;;;;;;;2.17;1.98;;;14.80;66.20;;;;;;5043147;28;20375;-67
2023/09/14 03:11:26;;;;;;;3.95;2.92;;;14.80;66.20;;;;;;5059561;28;20758;-68
2023/09/14 03:13:53;;;;;;;3.28;2.63;;;14.70;66.10;;;;;;5050086;28;20035;-68
2023/09/14 03:16:19;;;;;;;3.70;2.25;;;14.70;66.10;;;;;;5058823;28;20036;-67
2023/09/14 03:18:45;;;;;;;2.92;2.17;;;14.70;66.20;;;;;;5057028;28;20121;-67
2023/09/14 03:21:26;;;;;;;2.85;2.60;;;14.70;66.20;;;;;;5050061;28;20036;-67
2023/09/14 03:23:53;;;;;;;3.10;2.63;;;14.70;66.30;;;;;;5059629;28;20112;-67
2023/09/14 03:26:19;;;;;;;2.65;2.20;;;14.70;66.20;;;;;;5059945;28;20145;-68
2023/09/14 03:28:48;;;;;;;4.03;2.30;;;14.70;66.30;;;;;;5059183;28;20539;-67
2023/09/14 03:31:14;;;;;;;2.80;2.38;;;14.60;66.20;;;;;;5057852;28;20029;-66
2023/09/14 03:33:41;;;;;;;5.03;2.55;;;14.70;66.40;;;;;;5059893;28;20063;-67
2023/09/14 03:36:07;;;;;;;2.70;2.40;;;14.60;66.20;;;;;;5058670;28;20257;-67
2023/09/14 03:38:34;;;;;;;3.28;2.67;;;14.60;66.30;;;;;;5061276;28;20259;-67
2023/09/14 03:41:00;;;;;;;3.47;2.63;;;14.60;66.30;;;;;;5058780;28;20040;-67
2023/09/14 03:43:27;;;;;;;2.83;2.20;;;14.60;66.30;;;;;;5056721;28;20043;-67
2023/09/14 03:45:56;;;;;;;3.83;2.67;;;14.60;66.40;;;;;;5056258;28;20699;-67
2023/09/14 03:48:23;;;;;;;7.00;3.03;;;14.50;66.20;;;;;;5058319;28;20127;-67
2023/09/14 03:50:51;;;;;;;2.80;2.53;;;14.50;66.30;;;;;;5054717;28;20051;-67
2023/09/14 03:53:17;;;;;;;2.63;2.10;;;14.50;66.30;;;;;;5060419;28;20063;-67
2023/09/14 03:55:43;;;;;;;4.50;2.53;;;14.50;66.30;;;;;;5059849;28;20036;-67
2023/09/14 03:58:09;;;;;;;3.20;2.80;;;14.40;66.20;;;;;;5059319;28;20169;-67
2023/09/14 04:00:35;;;;;;;4.43;2.60;;;14.40;66.20;;;;;;5059315;28;20044;-67
2023/09/14 04:03:03;;;;;;;3.10;2.25;;;14.40;66.30;;;;;;5052889;28;20078;-66
2023/09/14 04:05:30;;;;;;;2.42;2.22;;;14.40;66.30;;;;;;5053737;28;20033;-67
2023/09/14 04:07:57;;;;;;;4.03;2.00;;;14.40;66.30;;;;;;5054149;28;20492;-66
2023/09/14 04:10:23;;;;;;;3.00;2.20;;;14.40;66.40;;;;;;5050275;28;20480;-68
2023/09/14 04:12:49;;;;;;;2.50;2.30;;;14.40;66.40;;;;;;5051454;28;20035;-68
2023/09/14 04:15:15;;;;;;;3.70;2.42;;;14.30;66.20;;;;;;5056005;28;20036;-67
2023/09/14 04:17:42;;;;;;;2.33;2.13;;;14.30;66.30;;;;;;5050455;28;20024;-68
2023/09/14 04:20:10;;;;;;;2.55;2.28;;;14.30;66.30;;;;;;5050789;28;20051;-68
2023/09/14 04:22:38;;;;;;;2.17;1.98;;;14.30;66.30;;;;;;5047621;28;20434;-67
2023/09/14 04:25:06;;;;;;;2.30;2.10;;;14.30;66.40;;;;;;5056473;28;20055;-67
2023/09/14 04:27:33;;;;;;;3.88;2.15;;;14.20;66.20;;;;;;5054912;28;20032;-67
2023/09/14 04:29:59;;;;;;;2.33;2.13;;;14.30;66.40;;;;;;5057623;28;20041;-67
2023/09/14 04:32:25;;;;;;;3.65;1.98;;;14.30;66.40;;;;;;5055356;28;20045;-67
2023/09/14 04:34:51;;;;;;;2.85;1.98;;;14.20;66.30;;;;;;5058298;28;20189;-67
2023/09/14 04:37:17;;;;;;;1.98;1.88;;;14.20;66.30;;;;;;5056659;28;20140;-67
2023/09/14 04:39:45;;;;;;;2.22;2.00;;;14.20;66.30;;;;;;5059767;28;20399;-67
2023/09/14 04:42:11;;;;;;;2.58;2.25;;;14.10;66.20;;;;;;5057469;28;20440;-67
2023/09/14 04:44:37;;;;;;;3.28;2.38;;;14.10;66.20;;;;;;5056179;28;20033;-67
2023/09/14 04:47:03;;;;;;;2.22;2.03;;;14.10;66.20;;;;;;5054142;28;20486;-67
2023/09/14 04:49:29;;;;;;;4.03;2.13;;;14.10;66.30;;;;;;5052207;28;20043;-67
2023/09/14 04:51:55;;;;;;;3.85;2.80;;;14.10;66.30;;;;;;5054586;28;20028;-67
2023/09/14 04:54:22;;;;;;;2.28;2.08;;;14.10;66.40;;;;;;5054452;28;20487;-67
2023/09/14 04:56:48;;;;;;;2.53;2.15;;;14.10;66.40;;;;;;5051792;28;20028;-67
2023/09/14 04:59:16;;;;;;;3.08;2.58;;;14.10;66.40;;;;;;5057744;28;20033;-68
2023/09/14 05:01:42;;;;;;;2.55;2.13;;;14.00;66.20;;;;;;5053731;28;20032;-67
2023/09/14 05:04:08;;;;;;;3.28;1.95;;;14.00;66.30;;;;;;5057944;28;20032;-68
2023/09/14 05:06:34;;;;;;;2.80;2.45;;;14.00;66.30;;;;;;5055886;28;20086;-67
2023/09/14 05:09:00;;;;;;;5.10;3.25;;;14.00;66.40;;;;;;5057575;28;20362;-67
2023/09/14 05:11:27;;;;;;;2.35;2.15;;;14.00;66.40;;;;;;5057736;28;20274;-67
2023/09/14 05:13:53;;;;;;;3.50;2.25;;;14.00;66.50;;;;;;5057555;28;20519;-67
2023/09/14 05:16:19;;;;;;;2.25;2.00;;;14.00;66.50;;;;;;5054941;28;20045;-67
2023/09/14 05:18:45;;;;;;;4.00;2.00;;;14.00;66.50;;;;;;5055065;28;20029;-67
2023/09/14 05:21:12;;;;;;;2.50;2.20;;;14.00;66.50;;;;;;5048660;28;20037;-67
2023/09/14 05:23:38;;;;;;;3.17;2.40;;;14.00;66.60;;;;;;5058996;28;20028;-67
2023/09/14 05:26:04;;;;;;;5.22;3.03;;;14.00;66.50;;;;;;5059955;28;20819;-67
2023/09/14 05:28:30;;;;;;;3.00;2.50;;;14.00;66.60;;;;;;5054750;28;20024;-66
2023/09/14 05:30:56;;;;;;;3.40;2.22;;;14.00;66.60;;;;;;5051937;28;20029;-67
2023/09/14 05:33:22;;;;;;;4.18;3.38;;;14.00;66.60;;;;;;5055020;28;20028;-66
2023/09/14 05:35:50;;;;;;;3.60;2.10;;;14.00;66.60;;;;;;5052463;28;20413;-66
2023/09/14 05:38:17;;;;;;;3.25;2.15;;;14.00;66.70;;;;;;5059872;28;20052;-67
2023/09/14 05:40:43;;;;;;;3.72;2.00;;;13.90;66.50;;;;;;5052991;28;20052;-68
2023/09/14 05:43:09;;;;;;;3.17;2.08;;;13.90;66.50;;;;;;5048120;28;20068;-67
2023/09/14 05:45:35;;;;;;;3.30;2.25;;;13.90;66.60;;;;;;5036447;28;20476;-67
2023/09/14 05:48:04;;;;;;;4.03;3.05;;;13.90;66.90;;;;;;5046498;28;20033;-67
2023/09/14 05:50:33;;;;;;;5.57;2.30;;;13.90;67.00;;;;;;5049857;28;20029;-67
2023/09/14 05:52:59;;;;;;;3.10;2.33;;;13.90;67.30;;;;;;5045912;28;20279;-67
2023/09/14 05:55:25;;;;;;;5.25;2.53;;;13.90;67.40;;;;;;5050897;28;20489;-68
2023/09/14 05:57:53;;;;;;;4.38;2.72;;;13.90;67.60;;;;;;5052548;28;20048;-67
2023/09/14 06:00:19;;;;;;;3.75;2.72;;;13.90;67.80;;;;;;5049234;28;20088;-67
2023/09/14 06:02:53;;;;;;;4.78;2.83;;;13.90;67.90;;;;;;5031743;28;20047;-67
2023/09/14 06:05:19;;;;;;;3.78;2.50;;;13.90;68.10;;;;;;5055109;28;20578;-67
2023/09/14 06:07:45;;;;;;;5.90;2.50;;;14.00;68.40;;;;;;5055153;28;20048;-67
2023/09/14 06:10:12;;;;;;;3.03;2.65;;;14.00;68.60;;;;;;5055850;28;20105;-67
2023/09/14 06:12:44;;;;;;;2.58;2.33;;;14.00;68.70;;;;;;5034272;28;20040;-68
2023/09/14 06:15:10;;;;;;;3.33;2.60;;;14.00;68.70;;;;;;5054077;28;20363;-67
2023/09/14 06:17:36;;;;;;;4.80;2.47;;;14.00;68.80;;;;;;5051894;28;20032;-67
2023/09/14 06:20:03;;;;;;;3.50;2.38;;;14.10;69.10;;;;;;5049532;28;20611;-67
2023/09/14 06:22:29;;;;;;;3.58;2.38;;;14.10;69.10;;;;;;5045314;28;20482;-67
2023/09/14 06:24:56;;;;;;;3.97;3.15;;;14.20;69.30;;;;;;5053870;28;20031;-67
2023/09/14 06:27:21;;;;;;;3.63;2.42;;;14.20;69.50;;;;;;5051467;28;20436;-67
2023/09/14 06:29:47;;;;;;;2.50;2.30;;;14.30;69.60;;;;;;5044239;28;20149;-67
2023/09/14 06:32:14;;;;;;;4.88;2.88;;;14.30;69.70;;;;;;5044519;28;20085;-67
2023/09/14 06:34:40;;;;;;;3.97;2.00;;;14.30;69.60;;;;;;5051968;28;20481;-67
2023/09/14 06:37:06;;;;;;;2.80;2.30;;;14.40;69.80;;;;;;5057104;28;20140;-67
2023/09/14 06:39:32;;;;;;;5.88;2.60;;;14.40;69.80;;;;;;5054581;28;20044;-67
2023/09/14 06:41:59;;;;;;;3.05;2.30;;;14.50;70.00;;;;;;5048325;28;20060;-67
2023/09/14 06:44:25;;;;;;;3.30;2.50;;;14.60;70.10;;;;;;5049402;28;20029;-67
2023/09/14 06:46:52;;;;;;;4.90;2.13;;;14.70;70.20;;;;;;5050769;28;20078;-67
2023/09/14 06:49:19;;;;;;;3.25;2.30;;;14.70;70.10;;;;;;5054542;28;20033;-67
2023/09/14 06:51:46;;;;;;;4.55;2.92;;;14.80;70.20;;;;;;5061483;28;20251;-67
2023/09/14 06:54:12;;;;;;;2.67;2.05;;;14.90;70.40;;;;;;5056135;28;20362;-67
2023/09/14 06:56:38;;;;;;;5.30;2.20;;;15.00;70.60;;;;;;5051515;28;20119;-67
2023/09/14 06:59:04;;;;;;;3.95;2.20;;;15.00;70.50;;;;;;5056068;28;20074;-67
2023/09/14 07:01:31;;;;;;;5.68;2.55;;;15.10;70.60;;;;;;5058421;28;20040;-67
2023/09/14 07:03:57;;;;;;;4.40;2.47;;;15.20;70.70;;;;;;5057750;28;20020;-68
2023/09/14 07:06:23;;;;;;;3.53;2.58;;;15.30;70.80;;;;;;5058154;28;20032;-67
2023/09/14 07:08:52;;;;;;;3.95;2.80;;;15.30;70.70;;;;;;5060120;28;20549;-67
2023/09/14 07:11:18;;;;;;;3.95;2.20;;;15.50;70.90;;;;;;5059501;28;20032;-67
2023/09/14 07:13:44;;;;;;;2.97;1.95;;;15.50;70.80;;;;;;5055913;28;20036;-67
2023/09/14 07:16:13;;;;;;;3.00;1.95;;;15.60;70.80;;;;;;5055592;28;20033;-67
2023/09/14 07:18:39;;;;;;;4.38;3.13;;;15.70;70.80;;;;;;5057144;28;20032;-67
2023/09/14 07:21:08;;;;;;;2.78;2.33;;;15.80;70.80;;;;;;5054551;28;20522;-67
2023/09/14 07:23:35;;;;;;;4.57;2.42;;;15.80;70.70;;;;;;5059676;28;20027;-67
2023/09/14 07:26:04;;;;;;;4.50;2.60;;;15.90;70.80;;;;;;5056478;28;20040;-67
2023/09/14 07:28:30;;;;;;;2.70;2.10;;;16.00;70.80;;;;;;5054111;28;20046;-67
2023/09/14 07:31:02;;;;;;;3.55;1.80;;;16.00;70.70;;;;;;5057788;28;20071;-67
2023/09/14 07:33:29;;;;;;;2.92;1.90;;;16.20;70.90;;;;;;5059932;28;20041;-67
2023/09/14 07:35:55;;;;;;;3.00;2.10;;;16.30;70.70;;;;;;5056241;28;20027;-67
2023/09/14 07:38:21;;;;;;;4.35;2.33;;;16.40;70.60;;;;;;5057277;28;20056;-66
2023/09/14 07:40:48;;;;;;;2.15;1.75;;;16.60;70.70;;;;;;5058917;28;20499;-67
2023/09/14 07:43:21;;;;;;;3.47;2.20;;;16.70;70.50;;;;;;5056961;28;20110;-67
2023/09/14 07:45:47;;;;;;;3.03;2.30;;;16.90;70.50;;;;;;5055741;28;20028;-67
2023/09/14 07:48:14;;;;;;;3.88;2.00;;;17.00;70.40;;;;;;5058669;28;20475;-67
2023/09/14 07:50:47;;;;;;;4.85;2.25;;;17.10;70.30;;;;;;5053822;28;20108;-67
2023/09/14 07:53:33;;;;;;;1.98;1.75;;;17.20;70.10;;;;;;5046066;28;20037;-67
2023/09/14 07:55:59;;;;;;;2.50;1.77;;;17.40;70.10;;;;;;5051449;28;20067;-67
2023/09/14 07:58:34;;;;;;;2.25;2.05;;;17.50;70.00;;;;;;5061409;28;20434;-67
2023/09/14 08:01:01;;;;;;;4.95;2.83;;;17.60;70.00;;;;;;5057291;28;20040;-67
2023/09/14 08:03:36;;;;;;;4.55;1.83;;;17.60;69.80;;;;;;5056417;28;20028;-67
2023/09/14 08:06:02;;;;;;;3.67;1.80;;;17.70;69.70;;;;;;5053277;28;20114;-67
2023/09/14 08:08:29;;;;;;;2.20;1.77;;;17.90;69.80;;;;;;5057166;28;20572;-67
2023/09/14 08:10:55;;;;;;;6.20;2.40;;;18.00;69.70;;;;;;5056754;28;20144;-67
2023/09/14 08:13:22;;;;;;;3.95;1.80;;;18.20;69.60;;;;;;5053391;28;20025;-67
2023/09/14 08:15:48;;;;;;;2.55;1.70;;;18.40;69.60;;;;;;5047505;28;20511;-68
2023/09/14 08:18:14;;;;;;;3.63;1.60;;;18.50;69.30;;;;;;5052936;28;20547;-67
2023/09/14 08:20:43;;;;;;;3.25;1.80;;;18.70;69.20;;;;;;5050239;28;20040;-67
2023/09/14 08:23:15;;;;;;;3.50;1.70;;;18.80;68.90;;;;;;5050596;28;20039;-67
2023/09/14 08:25:46;;;;;;;3.00;1.92;;;19.00;68.90;;;;;;5052548;28;20029;-67
2023/09/14 08:28:17;;;;;;;3.25;1.67;;;19.10;68.70;;;;;;5054927;28;20052;-67
2023/09/14 08:30:44;;;;;;;1.92;1.35;;;19.20;68.50;;;;;;5053454;28;20385;-67
2023/09/14 08:33:11;;;;;;;2.75;1.60;;;19.30;68.40;;;;;;5050831;28;20040;-67
2023/09/14 08:35:38;;;;;;;4.57;2.22;;;19.40;68.40;;;;;;5057486;28;20031;-67
2023/09/14 08:38:05;;;;;;;2.75;1.60;;;19.40;68.20;;;;;;5059206;28;20100;-67
2023/09/14 08:40:32;;;;;;;4.32;1.98;;;19.50;68.10;;;;;;5052558;28;20076;-67
2023/09/14 08:43:00;;;;;;;2.78;1.63;;;19.60;67.90;;;;;;5053993;28;20492;-67
2023/09/14 08:45:32;;;;;;;2.58;1.52;;;19.60;67.70;;;;;;5055110;28;20028;-67
2023/09/14 08:48:02;;;;;;;2.55;1.80;;;19.70;67.60;;;;;;5068841;28;20510;-67
2023/09/14 08:50:33;;;;;;;3.47;2.10;;;19.80;67.60;;;;;;5059789;28;20063;-67
2023/09/14 08:53:02;;;;;;;3.33;1.73;;;19.80;67.40;;;;;;5056866;28;20028;-67
2023/09/14 08:55:35;;;;;;;2.58;1.60;;;19.90;67.30;;;;;;5057573;28;20060;-67
2023/09/14 08:58:02;;;;;;;3.45;1.75;;;20.00;67.30;;;;;;5057940;28;20031;-67
2023/09/14 09:00:29;;;;;;;3.58;1.52;;;20.10;67.10;;;;;;5054529;28;20032;-67
2023/09/14 09:02:58;;;;;;;2.35;1.98;;;20.20;67.00;;;;;;5061956;28;20058;-66
2023/09/14 09:05:26;;;;;;;4.65;1.77;;;20.30;66.80;;;;;;5053899;28;20170;-67
2023/09/14 09:07:56;;;;;;;4.25;1.70;;;20.40;66.60;;;;;;5058213;28;20442;-67
2023/09/14 09:10:25;;;;;;;5.28;1.85;;;20.60;66.70;;;;;;5056129;28;20032;-67
2023/09/14 09:13:04;;;;;;;3.53;1.75;;;20.70;66.50;;;;;;5059281;28;20072;-66
2023/09/14 09:15:32;;;;;;;3.58;1.90;;;20.80;66.30;;;;;;5057005;28;20032;-67
2023/09/14 09:18:08;;;;;;;3.33;2.10;;;20.90;66.20;;;;;;5056725;28;20032;-67
2023/09/14 09:20:35;;;;;;;2.83;1.70;;;21.00;66.60;;;;;;5055333;28;20452;-66
2023/09/14 09:23:15;;;;;;;2.47;1.38;;;21.10;65.80;;;;;;5058092;28;20718;-67
2023/09/14 09:25:51;;;;;;;1.88;1.35;;;21.30;65.80;;;;;;5053284;28;20036;-67
2023/09/14 09:28:17;;;;;;;4.00;1.38;;;21.50;65.80;;;;;;5059755;28;20032;-67
2023/09/14 09:30:44;;;;;;;2.28;1.45;;;21.60;65.60;;;;;;5057343;28;20040;-67
2023/09/14 09:33:10;;;;;;;2.97;1.73;;;21.70;65.50;;;;;;5065424;28;20032;-66
2023/09/14 09:35:36;;;;;;;2.95;1.70;;;21.80;65.20;;;;;;5057365;28;20025;-67
2023/09/14 09:38:16;;;;;;;3.35;1.70;;;21.90;65.10;;;;;;5056975;28;20055;-66
2023/09/14 09:40:44;;;;;;;2.90;2.33;;;22.10;65.50;;;;;;5057050;28;20051;-67
2023/09/14 09:43:15;;;;;;;2.65;1.58;;;22.20;64.90;;;;;;5058091;28;20064;-67
2023/09/14 09:45:42;;;;;;;5.15;1.90;;;22.40;64.80;;;;;;5052472;28;20032;-67
2023/09/14 09:48:09;;;;;;;3.88;1.73;;;22.50;64.60;;;;;;5057760;28;20032;-67
2023/09/14 09:50:36;;;;;;;3.35;1.88;;;22.70;64.50;;;;;;5056356;28;20025;-67
2023/09/14 09:53:14;;;;;;;3.08;1.70;;;22.80;64.30;;;;;;5055279;28;20039;-67
2023/09/14 09:55:43;;;;;;;2.85;1.92;;;23.00;64.80;;;;;;5055490;28;20029;-67
2023/09/14 09:58:09;;;;;;;4.18;1.80;;;23.10;64.10;;;;;;5058344;28;20516;-67
2023/09/14 10:00:39;;;;;;;3.45;2.10;;;23.20;64.10;;;;;;5055922;28;20050;-67
2023/09/14 10:03:08;;;;;;;14.35;7.50;;;23.20;63.80;;;;;;5055814;28;20040;-67
2023/09/14 10:05:40;;;;;;;7.72;4.43;;;23.30;63.90;;;;;;5048260;28;20027;-67
2023/09/14 10:08:27;;;;;;;6.05;3.50;;;23.30;63.70;;;;;;5055550;28;20455;-67
2023/09/14 10:10:53;;;;;;;7.03;3.65;;;23.40;63.50;;;;;;5061120;28;20059;-67
2023/09/14 10:13:24;;;;;;;5.82;3.00;;;23.50;63.70;;;;;;5047639;28;20361;-67
2023/09/14 10:15:54;;;;;;;5.78;3.30;;;23.60;63.60;;;;;;5057843;28;20032;-67
2023/09/14 10:18:28;;;;;;;5.10;2.92;;;23.70;63.50;;;;;;5056328;28;20361;-67
2023/09/14 10:20:56;;;;;;;4.78;3.53;;;23.80;63.40;;;;;;5046288;28;20401;-67
2023/09/14 10:23:22;;;;;;;3.72;3.15;;;23.90;63.40;;;;;;5051951;28;20178;-66
2023/09/14 10:25:55;;;;;;;;;;;24.00;63.30;;;;;;5053230;28;20029;-67
2023/09/14 10:28:22;;;;;;;5.45;2.58;;;24.10;63.20;;;;;;5059090;28;20148;-67
2023/09/14 10:30:50;;;;;;;4.07;2.65;;;24.30;63.40;;;;;;5058411;28;20081;-67
2023/09/14 10:33:17;;;;;;;2.92;2.30;;;24.40;63.20;;;;;;5058363;28;20024;-67
2023/09/14 10:35:43;;;;;;;3.65;1.98;;;24.50;63.10;;;;;;5059031;28;20035;-67
2023/09/14 10:38:11;;;;;;;5.30;2.40;;;24.60;63.00;;;;;;5056142;28;20056;-67
2023/09/14 10:40:37;;;;;;;3.38;2.45;;;24.80;63.00;;;;;;5058054;28;20059;-66
2023/09/14 10:43:05;;;;;;;7.35;2.70;;;24.90;62.80;;;;;;5057653;28;20487;-67
2023/09/14 10:45:35;;;;;;;2.55;1.85;;;25.10;62.70;;;;;;5051979;28;20032;-67
2023/09/14 10:48:08;;;;;;;2.83;2.38;;;25.20;62.40;;;;;;5057913;28;20032;-67
2023/09/14 10:50:34;;;;;;;6.93;2.60;;;25.30;62.20;;;;;;5055780;28;20039;-67
2023/09/14 10:53:01;;;;;;;2.53;1.90;;;25.50;62.10;;;;;;5055532;28;20025;-67
2023/09/14 10:55:28;;;;;;;2.22;1.80;;;25.60;61.80;;;;;;5053138;28;20174;-67
2023/09/14 10:57:54;;;;;;;2.83;1.98;;;25.70;61.60;;;;;;5056979;28;20139;-67
2023/09/14 11:00:31;;;;;;;2.28;1.50;;;25.80;61.30;;;;;;5050436;28;20041;-66
2023/09/14 11:02:58;;;;;;;3.83;1.88;;;25.90;61.00;;;;;;5050547;28;20425;-67
2023/09/14 11:05:26;;;;;;;4.43;2.00;;;26.00;60.90;;;;;;5056713;28;20037;-67
2023/09/14 11:08:00;;;;;;;2.30;1.77;;;26.10;60.70;;;;;;5050593;28;20029;-68
2023/09/14 11:10:34;;;;;;;2.42;1.92;;;26.10;60.40;;;;;;5055662;28;20027;-67
2023/09/14 11:13:19;;;;;;;2.55;1.60;;;26.10;60.30;;;;;;5052668;28;20115;-67
2023/09/14 11:15:54;;;;;;;2.55;1.60;;;26.20;60.00;;;;;;5055608;28;20028;-67
2023/09/14 11:18:37;;;;;;;2.85;1.45;;;26.20;60.00;;;;;;5053575;28;20041;-67
2023/09/14 11:21:32;;;;;;;2.42;1.52;;;26.20;59.80;;;;;;5050020;28;20048;-67
2023/09/14 11:24:07;;;;;;;1.80;1.55;;;26.30;59.60;;;;;;5054813;28;20123;-67
2023/09/14 11:26:42;;;;;;;2.28;1.52;;;26.40;59.80;;;;;;5050862;28;20242;-67
2023/09/14 11:29:12;;;;;;;3.67;1.92;;;26.40;59.50;;;;;;5058742;28;20024;-67
2023/09/14 11:31:39;;;;;;;3.53;2.05;;;26.40;59.30;;;;;;5053455;28;20040;-67
2023/09/14 11:34:10;;;;;;;1.58;1.45;;;26.40;59.20;;;;;;5056905;28;20387;-67
2023/09/14 11:36:37;;;;;;;3.60;1.45;;;26.50;59.20;;;;;;5061900;28;20510;-67
2023/09/14 11:39:11;;;;;;;2.20;1.58;;;26.50;59.10;;;;;;5061289;28;20048;-67
2023/09/14 11:41:48;;;;;;;3.47;1.60;;;26.60;58.90;;;;;;5052321;28;20119;-66
2023/09/14 11:44:18;;;;;;;3.08;1.73;;;26.70;58.80;;;;;;5045675;28;20627;-67
2023/09/14 11:46:47;;;;;;;1.45;1.17;;;26.80;58.70;;;;;;5053442;28;20067;-67
2023/09/14 11:49:14;;;;;;;1.90;1.52;;;26.90;58.50;;;;;;5054977;28;20437;-67
2023/09/14 11:51:40;;;;;;;2.67;1.85;;;27.00;58.30;;;;;;5055698;28;20427;-67
2023/09/14 11:54:10;;;;;;;1.92;1.40;;;27.10;58.10;;;;;;5051903;28;20044;-66
2023/09/14 11:56:37;;;;;;;2.90;2.00;;;27.20;57.90;;;;;;5050154;28;20405;-67
2023/09/14 11:59:04;;;;;;;1.63;1.50;;;27.30;57.80;;;;;;5054010;28;20499;-68
2023/09/14 12:01:35;;;;;;;1.75;1.60;;;27.40;57.60;;;;;;5056421;28;20097;-67
2023/09/14 12:04:05;;;;;;;2.85;1.70;;;27.60;57.40;;;;;;5056493;28;20047;-67
2023/09/14 12:06:32;;;;;;;1.90;1.30;;;27.80;57.30;;;;;;5058287;28;20059;-67
2023/09/14 12:08:58;;;;;;;2.15;1.50;;;27.90;57.00;;;;;;5058060;28;20481;-67
2023/09/14 12:11:42;;;;;;;2.47;1.70;;;28.00;56.70;;;;;;5058911;28;20044;-67
2023/09/14 12:14:08;;;;;;;1.88;1.40;;;28.10;56.40;;;;;;5056937;28;20146;-67
2023/09/14 12:16:38;;;;;;;2.47;1.52;;;28.10;56.40;;;;;;5057203;28;20029;-66
2023/09/14 12:19:05;;;;;;;1.80;1.30;;;28.10;56.30;;;;;;5051298;28;20440;-67
2023/09/14 12:21:31;;;;;;;2.92;1.63;;;28.10;56.30;;;;;;5044783;28;20041;-67
2023/09/14 12:23:58;;;;;;;2.22;1.67;;;28.10;56.40;;;;;;5062692;28;20043;-67
2023/09/14 12:26:27;;;;;;;2.80;1.50;;;28.00;56.40;;;;;;5054036;28;20032;-67
2023/09/14 12:28:55;;;;;;;2.33;1.33;;;28.00;56.40;;;;;;5062461;28;20063;-67
2023/09/14 12:31:23;;;;;;;4.05;1.70;;;27.90;56.30;;;;;;5062880;28;20075;-66
2023/09/14 12:33:50;;;;;;;2.53;1.77;;;27.90;56.30;;;;;;5049554;28;20037;-66
2023/09/14 12:36:18;;;;;;;2.25;1.98;;;27.90;56.30;;;;;;5058129;28;20109;-67
2023/09/14 12:38:46;;;;;;;4.28;1.50;;;27.90;56.20;;;;;;5060777;28;20055;-67
2023/09/14 12:41:14;;;;;;;1.83;1.65;;;27.90;56.10;;;;;;5058078;28;20076;-67
2023/09/14 12:43:41;;;;;;;2.67;2.08;;;27.80;56.10;;;;;;5057411;28;20029;-66
2023/09/14 12:46:07;;;;;;;3.70;2.58;;;27.80;56.10;;;;;;5060154;28;20059;-67
2023/09/14 12:48:37;;;;;;;2.75;2.25;;;27.80;56.10;;;;;;5060554;28;20039;-67
2023/09/14 12:51:06;;;;;;;2.33;1.90;;;27.80;56.10;;;;;;5055316;28;20127;-67
2023/09/14 12:53:42;;;;;;;2.22;2.03;;;27.80;56.00;;;;;;5054943;28;20195;-67